Time;durP1;ratioP1;P1;durP2;ratioP2;P2;SDS_P1;SDS_P2;PMS_P1;PMS_P2;Temp;Humidity;BMP_temperature;BMP_pressure;BME280_temperature;BME280_humidity;BME280_pressure;Samples;Min_cycle;Max_cycle;Signal;HPM_P1;HPM_P2
2022/04/22 00:01:13;;;;;;;;;;;;;;;8.07;78.27;100159.93;85980;1335;23058;-76
2022/04/22 00:03:18;;;;;;;;;;;;;;;8.08;78.40;100159.58;85969;1334;22583;-78
2022/04/22 00:05:26;;;;;;;;;;;;;;;8.06;78.08;100158.41;85971;1335;23220;-76
2022/04/22 00:07:34;;;;;;;;;;;;;;;8.06;78.12;100158.43;85979;1335;22471;-76
2022/04/22 00:09:39;;;;;;;;;;;;;;;8.07;77.80;100160.45;85979;1335;22446;-79
2022/04/22 00:11:44;;;;;;;;;;;;;;;8.10;77.77;100159.00;85889;1336;22461;-79
2022/04/22 00:13:50;;;;;;;;;;;;;;;8.10;77.64;100157.59;85974;1335;22436;-76
2022/04/22 00:15:54;;;;;;;;;;;;;;;8.10;77.57;100156.92;85970;1332;23323;-76
2022/04/22 00:17:59;;;;;;;;;;;;;;;8.09;77.37;100156.27;85978;1335;22440;-76
2022/04/22 00:20:09;;;;;;;;;;;;;;;8.07;77.46;100159.39;85963;1335;22456;-80
2022/04/22 00:22:14;;;;;;;;;;;;;;;8.07;77.48;100155.25;85888;1336;23079;-80
2022/04/22 00:24:18;;;;;;;;;;;;;;;8.07;77.54;100157.69;85889;1335;23209;-80
2022/04/22 00:26:23;;;;;;;;;;;;;;;8.08;77.45;100155.23;85976;1335;23054;-80
2022/04/22 00:28:27;;;;;;;;;;;;;;;8.09;77.35;100153.83;85881;1336;23160;-76
2022/04/22 00:30:35;;;;;;;;;;;;;;;8.08;77.36;100149.14;85966;1335;23115;-76
2022/04/22 00:32:40;;;;;;;;;;;;;;;8.09;77.30;100158.00;85970;1335;22498;-77
2022/04/22 00:34:49;;;;;;;;;;;;;;;8.09;77.21;100152.41;85960;1335;22517;-80
2022/04/22 00:36:56;;;;;;;;;;;;;;;8.11;77.19;100156.52;85986;1335;23196;-80
2022/04/22 00:39:02;;;;;;;;;;;;;;;8.13;77.01;100156.11;85982;1334;23105;-80
2022/04/22 00:41:06;;;;;;;;;;;;;;;8.15;77.11;100154.48;85964;1334;22506;-80
2022/04/22 00:43:18;;;;;;;;;;;;;;;8.17;77.02;100158.59;85885;1336;23287;-80
2022/04/22 00:45:26;;;;;;;;;;;;;;;8.19;76.93;100159.22;85781;1337;23190;-80
2022/04/22 00:47:31;;;;;;;;;;;;;;;8.23;76.82;100155.45;85882;1336;23333;-80
2022/04/22 00:49:36;;;;;;;;;;;;;;;8.27;76.72;100156.69;85976;1333;23171;-76
2022/04/22 00:51:44;;;;;;;;;;;;;;;8.32;76.78;100154.98;85974;1335;22484;-76
2022/04/22 00:53:52;;;;;;;;;;;;;;;8.37;76.79;100150.66;85994;1334;22485;-77
2022/04/22 00:55:57;;;;;;;;;;;;;;;8.44;76.70;100150.61;85976;1335;23047;-77
2022/04/22 00:58:02;;;;;;;;;;;;;;;8.51;76.48;100150.74;85969;1335;22537;-77
2022/04/22 01:00:08;;;;;;;;;;;;;;;8.57;76.48;100147.08;85979;1335;23196;-80
2022/04/22 01:02:13;;;;;;;;;;;;;;;8.63;76.38;100147.58;85978;1335;23249;-80
2022/04/22 01:11:32;;;;;;;;;;;;;;;8.76;75.58;100145.20;85877;1332;23254;-76
2022/04/22 01:13:37;;;;;;;;;;;;;;;8.77;75.56;100145.70;85803;1338;23228;-80
2022/04/22 01:15:44;;;;;;;;;;;;;;;8.78;75.44;100145.32;85969;1335;23177;-80
2022/04/22 01:17:49;;;;;;;;;;;;;;;8.78;75.30;100149.46;85967;1335;22667;-76
2022/04/22 01:19:54;;;;;;;;;;;;;;;8.77;75.24;100150.04;85879;1333;22446;-76
2022/04/22 01:21:59;;;;;;;;;;;;;;;8.75;75.15;100151.15;85978;1335;22442;-77
2022/04/22 01:24:04;;;;;;;;;;;;;;;8.72;75.25;100149.00;85903;1336;23210;-77
2022/04/22 01:26:09;;;;;;;;;;;;;;;8.72;75.19;100148.48;85974;1335;23168;-76
2022/04/22 01:28:17;;;;;;;;;;;;;;;8.71;75.14;100150.76;85962;1335;23156;-76
2022/04/22 01:30:22;;;;;;;;;;;;;;;8.70;75.18;100153.73;85763;1336;23113;-80
2022/04/22 01:32:29;;;;;;;;;;;;;;;8.70;75.09;100156.88;85893;1333;23026;-80
2022/04/22 01:34:37;;;;;;;;;;;;;;;8.68;75.18;100156.25;85977;1335;22448;-80
2022/04/22 01:36:42;;;;;;;;;;;;;;;8.66;75.19;100154.58;85965;1328;22994;-80
2022/04/22 01:38:46;;;;;;;;;;;;;;;8.64;75.38;100152.57;85971;1334;23112;-80
2022/04/22 01:40:55;;;;;;;;;;;;;;;8.63;75.30;100156.77;85963;1335;22475;-80
2022/04/22 01:42:59;;;;;;;;;;;;;;;8.62;75.31;100156.64;85965;1334;23322;-80
2022/04/22 01:45:08;;;;;;;;;;;;;;;8.61;75.37;100153.73;85978;1331;23289;-80
2022/04/22 01:47:12;;;;;;;;;;;;;;;8.58;75.56;100152.08;85971;1335;23354;-80
2022/04/22 01:49:17;;;;;;;;;;;;;;;8.58;75.60;100155.05;85964;1335;22502;-80
2022/04/22 01:51:22;;;;;;;;;;;;;;;8.58;75.64;100152.11;85967;1334;22600;-80
2022/04/22 01:53:29;;;;;;;;;;;;;;;8.58;75.66;100152.61;85967;1335;23263;-80
2022/04/22 01:55:38;;;;;;;;;;;;;;;8.59;75.72;100149.60;85876;1333;22571;-80
2022/04/22 01:57:45;;;;;;;;;;;;;;;8.62;75.92;100151.59;85900;1331;23047;-80
2022/04/22 01:59:49;;;;;;;;;;;;;;;8.65;75.96;100150.12;85973;1335;23248;-80
2022/04/22 02:01:54;;;;;;;;;;;;;;;8.68;76.09;100148.95;85964;1335;22502;-80
2022/04/22 02:03:59;;;;;;;;;;;;;;;8.75;76.22;100151.48;85962;1332;22437;-77
2022/04/22 02:06:04;;;;;;;;;;;;;;;8.80;75.99;100151.35;85958;1335;23094;-76
2022/04/22 02:08:09;;;;;;;;;;;;;;;8.84;76.09;100145.10;85961;1334;23294;-76
2022/04/22 02:10:16;;;;;;;;;;;;;;;8.85;76.01;100145.24;85961;1333;23158;-77
2022/04/22 02:12:24;;;;;;;;;;;;;;;8.89;76.09;100144.61;85952;1334;22578;-76
2022/04/22 02:14:31;;;;;;;;;;;;;;;8.88;75.98;100144.11;85962;1335;22537;-81
2022/04/22 02:16:35;;;;;;;;;;;;;;;8.89;75.88;100144.95;85976;1335;22515;-80
2022/04/22 02:18:43;;;;;;;;;;;;;;;8.92;75.97;100146.07;85966;1332;23148;-80
2022/04/22 02:20:51;;;;;;;;;;;;;;;8.93;75.96;100145.83;85796;1333;22488;-80
2022/04/22 02:22:56;;;;;;;;;;;;;;;8.92;75.86;100146.92;85867;1336;23021;-80
2022/04/22 02:25:00;;;;;;;;;;;;;;;8.90;75.84;100147.50;85978;1331;22494;-79
2022/04/22 02:29:34;;;;;;;;;;;;;;;8.82;75.86;100152.14;85908;1331;22488;-77
2022/04/22 02:31:38;;;;;;;;;;;;;;;8.80;75.94;100152.90;85947;1335;22567;-76
2022/04/22 02:33:46;;;;;;;;;;;;;;;8.77;76.04;100152.81;85961;1332;23220;-80
2022/04/22 02:35:50;;;;;;;;;;;;;;;8.76;76.01;100160.34;85929;1332;23173;-80
2022/04/22 02:37:58;;;;;;;;;;;;;;;8.72;76.32;100158.73;85958;1335;23183;-80
2022/04/22 02:40:03;;;;;;;;;;;;;;;8.68;76.39;100156.45;85949;1335;22447;-79
2022/04/22 02:46:59;;;;;;;;;;;;;;;8.61;76.80;100159.78;85891;1331;22601;-80
2022/04/22 02:49:03;;;;;;;;;;;;;;;8.62;76.95;100161.86;85896;1332;22561;-76
2022/04/22 02:51:11;;;;;;;;;;;;;;;8.62;76.92;100161.16;85985;1332;23281;-76
2022/04/22 02:53:20;;;;;;;;;;;;;;;8.62;77.58;100163.42;85968;1325;22705;-77
2022/04/22 02:55:28;;;;;;;;;;;;;;;8.62;77.30;100163.94;85893;1332;23059;-79
2022/04/22 02:57:32;;;;;;;;;;;;;;;8.64;77.34;100163.02;85907;1335;22528;-80
2022/04/22 02:59:37;;;;;;;;;;;;;;;8.68;77.45;100164.27;85898;1332;23287;-76
2022/04/22 03:01:45;;;;;;;;;;;;;;;8.68;77.35;100161.66;85973;1332;23163;-76
2022/04/22 03:03:52;;;;;;;;;;;;;;;8.69;77.32;100162.84;85913;1336;22495;-76
2022/04/22 03:05:57;;;;;;;;;;;;;;;8.65;77.36;100162.77;85967;1332;23170;-76
2022/04/22 03:08:02;;;;;;;;;;;;;;;8.64;77.43;100163.20;85946;1332;23232;-76
2022/04/22 03:10:07;;;;;;;;;;;;;;;8.59;77.18;100158.66;85909;1336;23255;-79
2022/04/22 03:12:13;;;;;;;;;;;;;;;8.55;77.31;100163.47;85902;1334;23173;-80
2022/04/22 03:14:18;;;;;;;;;;;;;;;8.53;77.52;100166.84;85956;1332;23122;-79
2022/04/22 03:16:26;;;;;;;;;;;;;;;8.48;77.55;100161.78;85972;1332;22498;-79
2022/04/22 03:18:33;;;;;;;;;;;;;;;8.45;77.46;100164.51;85904;1336;22613;-76
2022/04/22 03:20:39;;;;;;;;;;;;;;;8.44;77.42;100165.42;85895;1333;22452;-76
2022/04/22 03:22:44;;;;;;;;;;;;;;;8.41;77.57;100166.52;85963;1335;23035;-76
2022/04/22 03:24:52;;;;;;;;;;;;;;;8.39;77.82;100171.13;85972;1332;22446;-79
2022/04/22 03:26:57;;;;;;;;;;;;;;;8.39;77.78;100171.63;85900;1331;22635;-79
2022/04/22 03:29:01;;;;;;;;;;;;;;;8.41;77.85;100171.77;85981;1330;22583;-79
2022/04/22 03:31:06;;;;;;;;;;;;;;;8.41;78.12;100170.88;85905;1332;22576;-79
2022/04/22 03:33:14;;;;;;;;;;;;;;;8.44;78.25;100170.64;85875;1333;23125;-79
2022/04/22 03:35:22;;;;;;;;;;;;;;;8.45;78.22;100176.65;85961;1335;23057;-79
2022/04/22 03:37:26;;;;;;;;;;;;;;;8.46;78.19;100173.85;85948;1332;23320;-79
2022/04/22 03:39:34;;;;;;;;;;;;;;;8.45;78.43;100174.59;85902;1331;22599;-79
2022/04/22 03:41:39;;;;;;;;;;;;;;;8.43;78.55;100176.39;85949;1331;22453;-79
2022/04/22 03:43:43;;;;;;;;;;;;;;;8.37;78.23;100174.99;85979;1335;23138;-79
2022/04/22 03:45:51;;;;;;;;;;;;;;;8.34;78.21;100170.73;85749;1334;23404;-79
2022/04/22 03:47:59;;;;;;;;;;;;;;;8.33;78.23;100172.34;85962;1332;23133;-79
2022/04/22 03:50:05;;;;;;;;;;;;;;;8.34;78.21;100169.70;85918;1332;22469;-76
2022/04/22 03:52:10;;;;;;;;;;;;;;;8.33;78.07;100169.55;85909;1333;22542;-76
2022/04/22 03:54:16;;;;;;;;;;;;;;;8.35;78.24;100170.70;85895;1336;23084;-79
2022/04/22 03:58:49;;;;;;;;;;;;;;;8.41;78.37;100175.25;85928;1332;22546;-76
2022/04/22 04:00:56;;;;;;;;;;;;;;;8.43;78.15;100179.15;85958;1331;23078;-76
2022/04/22 04:03:01;;;;;;;;;;;;;;;8.46;78.31;100177.84;85969;1335;22465;-76
2022/04/22 04:05:07;;;;;;;;;;;;;;;8.48;78.23;100179.53;85966;1335;23302;-79
2022/04/22 04:07:12;;;;;;;;;;;;;;;8.47;78.18;100186.70;85963;1332;23174;-80
2022/04/22 04:16:30;;;;;;;;;;;;;;;8.27;77.97;100198.77;85802;1335;22606;-76
2022/04/22 04:18:35;;;;;;;;;;;;;;;8.23;77.97;100196.09;85959;1334;22494;-77
2022/04/22 04:23:15;;;;;;;;;;;;;;;8.21;77.99;100193.04;85908;1336;23297;-76
2022/04/22 04:25:20;;;;;;;;;;;;;;;8.22;77.97;100197.70;85904;1333;22801;-76
2022/04/22 04:27:25;;;;;;;;;;;;;;;8.18;77.85;100197.99;85946;1330;23222;-76
2022/04/22 04:29:29;;;;;;;;;;;;;;;8.16;78.07;100193.36;85912;1332;23252;-75
2022/04/22 04:31:34;;;;;;;;;;;;;;;8.15;78.01;100192.34;85954;1335;22469;-75
2022/04/22 04:33:42;;;;;;;;;;;;;;;8.17;77.97;100193.68;85949;1332;22568;-79
2022/04/22 04:35:47;;;;;;;;;;;;;;;8.17;78.11;100195.77;85789;1335;22466;-79
2022/04/22 04:37:58;;;;;;;;;;;;;;;8.16;78.06;100194.41;85951;1331;22502;-79
2022/04/22 04:40:12;;;;;;;;;;;;;;;8.14;77.98;100188.41;85715;1335;22477;-79
2022/04/22 04:42:21;;;;;;;;;;;;;;;8.15;77.87;100185.77;85788;1337;22466;-80
2022/04/22 04:44:29;;;;;;;;;;;;;;;8.18;77.80;100184.10;85947;1332;22591;-75
2022/04/22 04:46:37;;;;;;;;;;;;;;;8.23;77.99;100183.92;85936;1332;23245;-75
2022/04/22 04:48:47;;;;;;;;;;;;;;;8.35;78.05;100182.70;85791;1333;22493;-79
2022/04/22 04:51:00;;;;;;;;;;;;;;;8.66;77.78;100189.20;85948;1332;22545;-79
2022/04/22 04:53:09;;;;;;;;;;;;;;;8.86;77.33;100189.41;85910;1336;23135;-79
2022/04/22 04:55:21;;;;;;;;;;;;;;;9.04;76.85;100194.19;85905;1333;22510;-80
2022/04/22 04:57:26;;;;;;;;;;;;;;;9.15;76.09;100202.14;85874;1332;22578;-79
2022/04/22 04:59:34;;;;;;;;;;;;;;;9.56;76.67;100207.13;85958;1332;23218;-80
2022/04/22 05:01:39;;;;;;;;;;;;;;;10.36;76.48;100203.06;85955;1333;23216;-80
2022/04/22 05:03:46;;;;;;;;;;;;;;;10.54;74.04;100200.58;85654;1331;355676;-80
2022/04/22 05:05:51;;;;;;;;;;;;;;;10.46;71.65;100208.60;85898;1330;22469;-80
2022/04/22 05:07:57;;;;;;;;;;;;;;;10.21;70.54;100212.52;85939;1332;22507;-80
2022/04/22 05:10:07;;;;;;;;;;;;;;;10.03;70.16;100215.46;85957;1333;23019;-76
2022/04/22 05:12:12;;;;;;;;;;;;;;;10.00;70.77;100213.83;85955;1333;22563;-76
2022/04/22 05:14:18;;;;;;;;;;;;;;;10.09;71.17;100215.05;85960;1332;22433;-80
2022/04/22 05:16:22;;;;;;;;;;;;;;;10.13;69.97;100212.30;85930;1332;23073;-80
2022/04/22 05:18:27;;;;;;;;;;;;;;;10.59;70.67;100207.02;85946;1332;23096;-76
2022/04/22 05:20:32;;;;;;;;;;;;;;;10.98;68.90;100205.59;85903;1331;22482;-78
2022/04/22 05:22:37;;;;;;;;;;;;;;;11.08;68.01;100207.95;85905;1330;22475;-76
2022/04/22 05:24:42;;;;;;;;;;;;;;;11.05;67.09;100209.45;85948;1332;23273;-79
2022/04/22 05:26:47;;;;;;;;;;;;;;;11.00;67.62;100215.79;85941;1333;23122;-78
2022/04/22 05:28:52;;;;;;;;;;;;;;;10.87;67.24;100219.50;85940;1331;23016;-78
2022/04/22 05:33:22;;;;;;;;;;;;;;;10.39;67.19;100225.60;85944;1332;22525;-77
2022/04/22 05:35:27;;;;;;;;;;;;;;;10.22;67.29;100225.55;85941;1332;23149;-77
2022/04/22 05:37:45;;;;;;;;;;;;;;;10.04;67.50;100227.62;85947;1335;23267;-75
2022/04/22 05:39:50;;;;;;;;;;;;;;;9.93;67.80;100233.10;85962;1332;23126;-76
2022/04/22 05:41:55;;;;;;;;;;;;;;;9.86;68.13;100237.71;85896;1333;23021;-77
2022/04/22 05:44:00;;;;;;;;;;;;;;;9.78;67.90;100235.90;85949;1332;22433;-76
2022/04/22 05:46:05;;;;;;;;;;;;;;;9.68;68.08;100235.44;85758;1334;23133;-76
2022/04/22 05:48:10;;;;;;;;;;;;;;;9.62;68.46;100236.02;85942;1335;22492;-76
2022/04/22 05:50:18;;;;;;;;;;;;;;;9.58;68.07;100238.05;85960;1332;23101;-80
2022/04/22 05:52:24;;;;;;;;;;;;;;;9.53;68.06;100235.25;85951;1332;23201;-80
2022/04/22 05:54:30;;;;;;;;;;;;;;;9.61;68.61;100235.52;85955;1332;23121;-80
2022/04/22 05:56:39;;;;;;;;;;;;;;;9.66;68.31;100242.11;85934;1332;23270;-80
2022/04/22 05:58:43;;;;;;;;;;;;;;;9.71;68.11;100241.41;85956;1326;22403;-77
2022/04/22 06:00:49;;;;;;;;;;;;;;;9.73;67.57;100247.63;85908;1336;22437;-75
2022/04/22 06:02:56;;;;;;;;;;;;;;;9.71;67.69;100244.70;85814;1334;23279;-75
2022/04/22 06:05:06;;;;;;;;;;;;;;;9.74;67.42;100248.45;85833;1335;22720;-80
2022/04/22 06:07:11;;;;;;;;;;;;;;;9.71;66.88;100249.95;85892;1336;23054;-79
2022/04/22 06:11:44;;;;;;;;;;;;;;;9.57;66.19;100253.59;85940;1332;22466;-76
2022/04/22 06:13:49;;;;;;;;;;;;;;;9.57;66.59;100254.28;85924;1332;22455;-74
2022/04/22 06:15:57;;;;;;;;;;;;;;;9.58;66.33;100258.27;85896;1331;23029;-75
2022/04/22 06:18:03;;;;;;;;;;;;;;;9.58;66.50;100253.57;85904;1332;22589;-74
2022/04/22 06:20:10;;;;;;;;;;;;;;;9.66;66.73;100256.03;85798;1335;22625;-78
2022/04/22 06:22:14;;;;;;;;;;;;;;;9.79;66.54;100265.15;85946;1335;23026;-79
2022/04/22 06:24:19;;;;;;;;;;;;;;;9.85;64.81;100267.38;85909;1332;22635;-75
2022/04/22 06:26:24;;;;;;;;;;;;;;;9.90;65.00;100267.20;85953;1332;22510;-75
2022/04/22 06:28:32;;;;;;;;;;;;;;;10.04;64.55;100265.44;85947;1332;23265;-76
2022/04/22 06:30:37;;;;;;;;;;;;;;;10.20;65.01;100258.41;85949;1332;23309;-75
2022/04/22 06:32:43;;;;;;;;;;;;;;;11.01;67.26;100251.51;85953;1332;22606;-75
2022/04/22 06:34:48;;;;;;;;;;;;;;;11.60;62.60;100248.28;85911;1332;23124;-76
2022/04/22 06:36:54;;;;;;;;;;;;;;;12.19;62.02;100251.23;85898;1332;22586;-76
2022/04/22 06:39:00;;;;;;;;;;;;;;;12.64;59.19;100245.77;85947;1331;22502;-83
2022/04/22 06:45:53;;;;;;;;;;;;;;;13.22;55.49;100239.55;85771;1334;22547;-76
2022/04/22 06:47:58;;;;;;;;;;;;;;;13.98;55.28;100240.83;85948;1335;23123;-76
2022/04/22 06:50:03;;;;;;;;;;;;;;;14.30;53.69;100243.64;85898;1331;22500;-78
2022/04/22 06:52:11;;;;;;;;;;;;;;;14.99;52.14;100240.64;85900;1332;23132;-79
2022/04/22 06:54:16;;;;;;;;;;;;;;;15.31;50.87;100248.79;85953;1332;23175;-76
2022/04/22 06:56:27;;;;;;;;;;;;;;;15.98;49.18;100256.13;85934;1332;23127;-76
2022/04/22 06:58:37;;;;;;;;;;;;;;;16.84;47.55;100248.18;85887;1334;22506;-77
2022/04/22 07:00:46;;;;;;;;;;;;;;;17.22;46.02;100247.05;85882;1332;22454;-76
2022/04/22 07:02:55;;;;;;;;;;;;;;;16.85;45.11;100242.27;85943;1332;23270;-76
2022/04/22 07:05:00;;;;;;;;;;;;;;;17.09;45.90;100242.30;85889;1331;23257;-81
2022/04/22 07:07:10;;;;;;;;;;;;;;;17.97;45.46;100236.73;85953;1333;22982;-81
2022/04/22 07:09:19;;;;;;;;;;;;;;;19.00;43.61;100232.45;85966;1332;22996;-76
2022/04/22 07:11:25;;;;;;;;;;;;;;;19.68;40.98;100225.09;85947;1335;22496;-76
2022/04/22 07:13:37;;;;;;;;;;;;;;;20.40;41.14;100214.45;85898;1335;22501;-81
2022/04/22 07:15:42;;;;;;;;;;;;;;;21.19;40.12;100224.31;85955;1335;23161;-82
2022/04/22 07:17:51;;;;;;;;;;;;;;;21.36;38.53;100226.84;85870;1332;22495;-82
2022/04/22 07:19:59;;;;;;;;;;;;;;;21.60;38.71;100225.66;85760;1334;22468;-76
2022/04/22 07:22:10;;;;;;;;;;;;;;;21.58;37.83;100226.73;85952;1332;22456;-76
2022/04/22 07:24:20;;;;;;;;;;;;;;;21.23;35.88;100230.70;85947;1333;22446;-82
2022/04/22 07:26:25;;;;;;;;;;;;;;;20.26;35.87;100228.85;85810;1335;22599;-81
2022/04/22 07:28:30;;;;;;;;;;;;;;;19.44;37.04;100229.80;85946;1332;23202;-77
2022/04/22 07:30:39;;;;;;;;;;;;;;;19.65;40.16;100229.77;85957;1332;22463;-77
2022/04/22 07:32:48;;;;;;;;;;;;;;;20.73;38.91;100222.38;85901;1332;23154;-77
2022/04/22 07:34:54;;;;;;;;;;;;;;;21.34;36.25;100220.95;85827;1335;23161;-77
2022/04/22 07:37:00;;;;;;;;;;;;;;;21.03;35.33;100220.60;85805;1332;23108;-77
2022/04/22 07:39:11;;;;;;;;;;;;;;;20.57;35.81;100224.04;85956;1335;22560;-77
2022/04/22 07:41:19;;;;;;;;;;;;;;;20.42;36.06;100236.02;85878;1332;22669;-77
2022/04/22 07:48:19;;;;;;;;;;;;;;;21.49;36.45;100227.17;85791;1333;22531;-80
2022/04/22 07:50:25;;;;;;;;;;;;;;;22.20;34.35;100231.09;85806;1333;22486;-77
2022/04/22 07:52:29;;;;;;;;;;;;;;;22.64;34.18;100233.37;85943;1332;23141;-77
2022/04/22 07:54:34;;;;;;;;;;;;;;;22.34;33.64;100233.71;85907;1336;22473;-77
2022/04/22 07:56:41;;;;;;;;;;;;;;;21.83;33.88;100239.48;85880;1335;22558;-77
2022/04/22 07:58:49;;;;;;;;;;;;;;;21.00;33.90;100244.96;85875;1330;22603;-82
2022/04/22 08:00:53;;;;;;;;;;;;;;;20.17;34.42;100248.65;85872;1333;22559;-82
2022/04/22 08:02:58;;;;;;;;;;;;;;;19.47;35.71;100252.61;85892;1334;22441;-82
2022/04/22 08:05:08;;;;;;;;;;;;;;;19.59;36.84;100252.34;85940;1332;22559;-77
2022/04/22 08:07:16;;;;;;;;;;;;;;;19.87;36.30;100253.20;85810;1335;23193;-77
2022/04/22 08:09:24;;;;;;;;;;;;;;;19.45;35.62;100259.61;85890;1332;23086;-76
2022/04/22 08:11:30;;;;;;;;;;;;;;;18.76;35.34;100268.52;85929;1332;22512;-77
2022/04/22 08:13:38;;;;;;;;;;;;;;;18.12;36.22;100274.73;85820;1335;23073;-78
2022/04/22 08:15:43;;;;;;;;;;;;;;;17.76;37.44;100278.11;85939;1332;22696;-77
2022/04/22 08:17:57;;;;;;;;;;;;;;;17.41;37.66;100278.91;85881;1333;23101;-77
2022/04/22 08:20:05;;;;;;;;;;;;;;;17.17;38.47;100279.33;85920;1333;23169;-75
2022/04/22 08:22:12;;;;;;;;;;;;;;;17.55;39.80;100280.95;85954;1332;22452;-76
2022/04/22 08:24:20;;;;;;;;;;;;;;;18.30;37.49;100282.98;85685;1336;23153;-83
2022/04/22 08:26:25;;;;;;;;;;;;;;;18.79;37.37;100275.52;85892;1332;23161;-82
2022/04/22 08:28:32;;;;;;;;;;;;;;;18.73;36.61;100275.14;85884;1336;23145;-83
2022/04/22 08:30:40;;;;;;;;;;;;;;;18.44;36.66;100274.90;85868;1333;23086;-83
2022/04/22 08:32:45;;;;;;;;;;;;;;;18.11;36.53;100274.96;85877;1332;22465;-81
2022/04/22 08:34:51;;;;;;;;;;;;;;;17.40;37.33;100272.84;85881;1332;22482;-75
2022/04/22 08:36:55;;;;;;;;;;;;;;;16.99;38.65;100273.62;85893;1332;23108;-77
2022/04/22 08:39:00;;;;;;;;;;;;;;;16.80;38.83;100281.75;85875;1332;23113;-82
2022/04/22 08:41:05;;;;;;;;;;;;;;;16.42;38.90;100283.45;85870;1332;23446;-81
2022/04/22 08:43:14;;;;;;;;;;;;;;;16.15;39.90;100280.23;85941;1333;23055;-81
2022/04/22 08:45:22;;;;;;;;;;;;;;;16.40;40.86;100272.48;85929;1332;23221;-76
2022/04/22 08:49:58;;;;;;;;;;;;;;;16.52;40.17;100271.94;85941;1332;23113;-76
2022/04/22 08:52:06;;;;;;;;;;;;;;;16.23;39.60;100268.27;85788;1335;23134;-76
2022/04/22 08:54:13;;;;;;;;;;;;;;;15.83;39.72;100266.08;85894;1332;23170;-78
2022/04/22 08:56:21;;;;;;;;;;;;;;;15.51;40.43;100269.20;85948;1332;22445;-79
2022/04/22 08:58:30;;;;;;;;;;;;;;;15.40;40.53;100271.58;85934;1332;23171;-76
2022/04/22 09:00:36;;;;;;;;;;;;;;;15.76;40.66;100273.50;85938;1332;22402;-75
2022/04/22 09:02:44;;;;;;;;;;;;;;;15.78;39.79;100270.41;85789;1336;22526;-77
2022/04/22 09:04:49;;;;;;;;;;;;;;;15.58;40.11;100271.09;85938;1333;22433;-81
2022/04/22 09:06:57;;;;;;;;;;;;;;;15.37;40.31;100272.67;85944;1333;22523;-80
2022/04/22 09:09:06;;;;;;;;;;;;;;;15.10;40.50;100273.23;85882;1335;23094;-80
2022/04/22 09:11:10;;;;;;;;;;;;;;;14.86;40.99;100267.73;85946;1326;22473;-83
2022/04/22 09:13:25;;;;;;;;;;;;;;;14.91;41.96;100268.88;85950;1332;23110;-77
2022/04/22 09:15:33;;;;;;;;;;;;;;;15.19;41.53;100275.83;85944;1332;22598;-80
2022/04/22 09:17:38;;;;;;;;;;;;;;;15.68;41.73;100281.59;85865;1336;23265;-80
2022/04/22 09:19:46;;;;;;;;;;;;;;;16.13;40.25;100281.60;85950;1335;22486;-79
2022/04/22 09:21:57;;;;;;;;;;;;;;;16.85;40.58;100273.30;85908;1336;23136;-80
2022/04/22 09:24:13;;;;;;;;;;;;;;;17.49;39.25;100274.16;85964;1332;22502;-77
2022/04/22 09:26:22;;;;;;;;;;;;;;;17.39;37.82;100277.27;85949;1327;22480;-76
2022/04/22 09:28:26;;;;;;;;;;;;;;;17.02;38.01;100274.33;85908;1332;22557;-80
2022/04/22 09:30:36;;;;;;;;;;;;;;;16.78;38.95;100277.14;85918;1336;22565;-83
2022/04/22 09:32:41;;;;;;;;;;;;;;;16.64;39.24;100283.66;85903;1332;23129;-83
2022/04/22 09:34:46;;;;;;;;;;;;;;;16.49;38.09;100280.19;85920;1332;22513;-74
2022/04/22 09:44:15;;;;;;;;;;;;;;;15.96;38.37;100292.31;85922;1332;22465;-82
2022/04/22 09:46:27;;;;;;;;;;;;;;;15.57;39.16;100291.72;85912;1333;23275;-81
2022/04/22 09:48:44;;;;;;;;;;;;;;;15.55;39.68;100289.56;85814;1333;22456;-74
2022/04/22 09:50:52;;;;;;;;;;;;;;;15.29;39.45;100293.86;85976;1331;22520;-75
2022/04/22 09:53:04;;;;;;;;;;;;;;;15.06;39.19;100302.28;85795;1335;22540;-75
2022/04/22 09:55:11;;;;;;;;;;;;;;;14.75;39.41;100300.83;85970;1327;22572;-81
2022/04/22 09:57:18;;;;;;;;;;;;;;;14.57;39.98;100299.23;85910;1332;22540;-80
2022/04/22 09:59:26;;;;;;;;;;;;;;;14.41;40.13;100300.95;85919;1332;22507;-80
2022/04/22 10:01:31;;;;;;;;;;;;;;;14.23;40.32;100294.23;85994;1335;23070;-80
2022/04/22 10:03:39;;;;;;;;;;;;;;;14.07;40.41;100302.30;86001;1335;22502;-76
2022/04/22 10:05:48;;;;;;;;;;;;;;;14.02;41.00;100298.54;85980;1334;23296;-76
2022/04/22 10:07:55;;;;;;;;;;;;;;;14.31;41.11;100297.14;85975;1335;22527;-76
2022/04/22 10:10:00;;;;;;;;;;;;;;;14.38;40.16;100296.58;85972;1334;22497;-81
2022/04/22 10:12:06;;;;;;;;;;;;;;;14.29;40.05;100301.79;85976;1332;23318;-80
2022/04/22 10:14:11;;;;;;;;;;;;;;;14.16;40.02;100305.45;85989;1332;22484;-83
2022/04/22 10:16:16;;;;;;;;;;;;;;;14.08;40.10;100304.84;85975;1333;22549;-79
2022/04/22 10:18:23;;;;;;;;;;;;;;;14.34;41.05;100303.47;86002;1335;23164;-75
2022/04/22 10:20:29;;;;;;;;;;;;;;;14.64;40.87;100305.33;85817;1336;22506;-75
2022/04/22 10:22:35;;;;;;;;;;;;;;;14.87;40.55;100299.12;85914;1332;23155;-76
2022/04/22 10:24:40;;;;;;;;;;;;;;;14.91;40.91;100292.58;85917;1332;23270;-76
2022/04/22 10:26:47;;;;;;;;;;;;;;;14.81;41.07;100297.73;85981;1332;23300;-76
2022/04/22 10:28:55;;;;;;;;;;;;;;;14.64;41.18;100294.63;85983;1332;23401;-76
2022/04/22 10:31:02;;;;;;;;;;;;;;;14.52;41.27;100299.36;85985;1335;22513;-75
2022/04/22 10:33:07;;;;;;;;;;;;;;;14.36;41.55;100300.70;85803;1337;23103;-76
2022/04/22 10:35:15;;;;;;;;;;;;;;;14.39;41.56;100298.77;85923;1332;22426;-77
2022/04/22 10:37:26;;;;;;;;;;;;;;;14.61;41.36;100297.42;85974;1332;23090;-76
2022/04/22 10:39:34;;;;;;;;;;;;;;;14.68;41.63;100300.74;85931;1332;23336;-77
2022/04/22 10:41:47;;;;;;;;;;;;;;;14.68;40.81;100300.73;85904;1332;23149;-77
2022/04/22 10:49:11;;;;;;;;;;;;;;;14.65;41.53;100294.05;85742;1333;23179;-77
2022/04/22 10:51:16;;;;;;;;;;;;;;;14.70;41.77;100293.25;85915;1332;22451;-77
2022/04/22 10:53:25;;;;;;;;;;;;;;;14.79;41.70;100296.75;85995;1334;22481;-85
2022/04/22 10:55:30;;;;;;;;;;;;;;;14.72;41.14;100296.80;85901;1336;23281;-85
2022/04/22 10:57:35;;;;;;;;;;;;;;;14.49;41.63;100300.16;85981;1332;22605;-86
2022/04/22 10:59:40;;;;;;;;;;;;;;;14.25;41.66;100298.33;85983;1335;23091;-87
2022/04/22 11:01:46;;;;;;;;;;;;;;;14.06;41.77;100301.84;85915;1332;23226;-87
2022/04/22 11:03:57;;;;;;;;;;;;;;;13.91;42.06;100297.14;85969;1332;23269;-77
2022/04/22 11:06:06;;;;;;;;;;;;;;;13.86;42.19;100288.84;85982;1335;23020;-76
2022/04/22 11:08:17;;;;;;;;;;;;;;;13.88;42.10;100288.05;85977;1331;23124;-77
2022/04/22 11:10:24;;;;;;;;;;;;;;;14.00;42.72;100283.38;85956;1332;22444;-77
2022/04/22 11:12:52;;;;;;;;;;;;;;;14.13;43.04;100283.20;85974;1333;22558;-81
2022/04/22 11:15:00;;;;;;;;;;;;;;;14.33;42.85;100282.27;85978;1335;22468;-77
2022/04/22 11:17:34;;;;;;;;;;;;;;;14.56;41.80;100283.50;85973;1333;22484;-76
2022/04/22 11:19:57;;;;;;;;;;;;;;;14.68;41.58;100280.17;85967;1332;22617;-81
2022/04/22 11:22:04;;;;;;;;;;;;;;;14.75;41.65;100280.83;85974;1332;22535;-81
2022/04/22 11:24:14;;;;;;;;;;;;;;;14.72;40.85;100281.75;85892;1336;23145;-76
2022/04/22 11:26:18;;;;;;;;;;;;;;;14.60;40.91;100285.21;85889;1332;23106;-76
2022/04/22 11:28:24;;;;;;;;;;;;;;;14.45;40.67;100294.44;85965;1332;23272;-81
2022/04/22 11:30:29;;;;;;;;;;;;;;;14.25;40.89;100289.04;85914;1332;23128;-80
2022/04/22 11:32:33;;;;;;;;;;;;;;;14.15;41.22;100287.45;85898;1332;23120;-83
2022/04/22 11:34:57;;;;;;;;;;;;;;;14.17;41.65;100289.08;85896;1335;22568;-80
2022/04/22 11:37:02;;;;;;;;;;;;;;;14.21;42.27;100288.20;85806;1332;22467;-83
2022/04/22 11:39:07;;;;;;;;;;;;;;;14.25;41.97;100289.06;85882;1335;22501;-83
2022/04/22 11:41:13;;;;;;;;;;;;;;;14.21;42.31;100290.98;85812;1333;22464;-81
2022/04/22 11:43:20;;;;;;;;;;;;;;;14.23;42.63;100285.64;85961;1332;22481;-78
2022/04/22 11:45:25;;;;;;;;;;;;;;;14.28;42.75;100276.08;85972;1332;22615;-76
2022/04/22 11:47:30;;;;;;;;;;;;;;;14.30;42.64;100276.31;85864;1336;23096;-76
2022/04/22 11:49:35;;;;;;;;;;;;;;;14.24;42.53;100277.70;85824;1330;22523;-79
2022/04/22 11:51:41;;;;;;;;;;;;;;;14.18;42.21;100274.16;85989;1333;23207;-80